createdAt,value
2023-01-29T00:01:49.085Z,101197.97
2023-01-29T00:04:15.783Z,101193.59
2023-01-29T00:06:42.562Z,101194.44
2023-01-29T00:09:09.425Z,101206.81
2023-01-29T00:11:36.216Z,101209.59
2023-01-29T00:14:02.915Z,101204.16
2023-01-29T00:16:29.608Z,101206.88
2023-01-29T00:18:56.282Z,101198.97
2023-01-29T00:21:23.360Z,101214.53
2023-01-29T00:23:50.963Z,101214.53
2023-01-29T00:26:17.821Z,101221.41
2023-01-29T00:28:47.930Z,101208.22
2023-01-29T00:31:20.079Z,101215.34
2023-01-29T00:33:47.426Z,101220.63
2023-01-29T00:36:15.512Z,101224.13
2023-01-29T00:38:42.213Z,101219.00
2023-01-29T00:41:29.934Z,101214.59
2023-01-29T00:44:15.573Z,101212.84
2023-01-29T00:46:42.443Z,101209.47
2023-01-29T00:49:09.167Z,101203.41
2023-01-29T00:51:37.276Z,101206.06
2023-01-29T00:54:06.675Z,101196.44
2023-01-29T00:56:36.378Z,101199.09
2023-01-29T00:59:04.030Z,101199.03
2023-01-29T01:01:49.041Z,101197.28
2023-01-29T01:04:15.803Z,101198.09
2023-01-29T01:06:42.553Z,101198.06
2023-01-29T01:09:29.393Z,101198.16
2023-01-29T01:11:56.174Z,101201.50
2023-01-29T01:14:22.830Z,101192.78
2023-01-29T01:16:49.620Z,101194.47
2023-01-29T01:19:16.511Z,101200.44
2023-01-29T01:21:45.462Z,101194.53
2023-01-29T01:24:13.064Z,101217.25
2023-01-29T01:26:40.057Z,101215.47
2023-01-29T01:29:06.896Z,101212.97
2023-01-29T01:31:33.594Z,101212.22
2023-01-29T01:34:00.966Z,101212.09
2023-01-29T01:36:27.649Z,101200.91
2023-01-29T01:38:54.882Z,101209.59
2023-01-29T01:41:22.809Z,101203.41
2023-01-29T01:44:00.723Z,101195.66
2023-01-29T01:46:35.973Z,101194.81
2023-01-29T01:49:09.797Z,101197.25
2023-01-29T01:51:39.853Z,101198.09
2023-01-29T01:54:09.425Z,101186.59
2023-01-29T01:56:42.726Z,101199.88
2023-01-29T01:59:12.226Z,101200.69
2023-01-29T02:01:41.739Z,101200.72
2023-01-29T02:04:29.738Z,101192.72
2023-01-29T02:07:16.622Z,101196.31
2023-01-29T02:09:51.373Z,101200.00
2023-01-29T02:12:18.846Z,101197.50
2023-01-29T02:14:45.895Z,101186.09
2023-01-29T02:17:15.392Z,101189.53
2023-01-29T02:20:03.613Z,101192.22
2023-01-29T02:22:56.488Z,101196.72
2023-01-29T02:25:37.972Z,101194.00
2023-01-29T02:28:36.686Z,101203.53
2023-01-29T02:31:19.176Z,101199.91
2023-01-29T02:34:06.058Z,101192.13
2023-01-29T02:36:46.860Z,101196.59
2023-01-29T02:39:24.247Z,101199.31
2023-01-29T02:42:29.696Z,101191.50
2023-01-29T02:45:00.345Z,101187.66
2023-01-29T02:47:40.147Z,101181.69
2023-01-29T02:50:15.921Z,101180.81
2023-01-29T02:53:12.821Z,101181.00
2023-01-29T02:55:55.771Z,101174.84
2023-01-29T02:58:34.951Z,101175.56
2023-01-29T03:01:10.169Z,101165.97
2023-01-29T03:03:40.982Z,101166.91
2023-01-29T03:06:20.032Z,101161.59
2023-01-29T03:08:55.482Z,101169.59
2023-01-29T03:11:22.368Z,101169.53
2023-01-29T03:14:16.829Z,101169.75
2023-01-29T03:16:53.791Z,101173.31
2023-01-29T03:19:39.972Z,101170.56
2023-01-29T03:22:16.653Z,101161.75
2023-01-29T03:25:16.737Z,101163.66
2023-01-29T03:28:07.133Z,101160.22
2023-01-29T03:31:01.087Z,101160.22
2023-01-29T03:33:41.029Z,101155.91
2023-01-29T03:36:16.385Z,101161.19
2023-01-29T03:38:43.854Z,101170.00
2023-01-29T03:41:19.541Z,101176.25
2023-01-29T03:44:21.758Z,101186.91
2023-01-29T03:47:04.724Z,101187.84
2023-01-29T03:49:52.211Z,101188.78
2023-01-29T03:52:32.148Z,101191.66
2023-01-29T03:55:18.288Z,101194.25
2023-01-29T03:57:59.813Z,101194.09
2023-01-29T04:00:29.801Z,101185.47
2023-01-29T04:03:17.727Z,101200.34
2023-01-29T04:05:53.302Z,101199.28
2023-01-29T04:08:29.847Z,101200.25
2023-01-29T04:11:03.866Z,101199.34
2023-01-29T04:13:33.698Z,101197.72
2023-01-29T04:16:01.610Z,101193.44
2023-01-29T04:18:47.933Z,101198.69
2023-01-29T04:21:15.703Z,101203.06
2023-01-29T04:23:43.876Z,101202.94
2023-01-29T04:26:22.979Z,101200.41
2023-01-29T04:28:54.123Z,101204.66
2023-01-29T04:31:23.581Z,101208.06
2023-01-29T04:34:12.860Z,101203.03
2023-01-29T04:36:53.708Z,101206.56
2023-01-29T04:39:28.255Z,101208.19
2023-01-29T04:42:00.834Z,101202.94
2023-01-29T04:44:49.760Z,101203.06
2023-01-29T04:47:36.746Z,101206.41
2023-01-29T04:50:19.002Z,101202.13
2023-01-29T04:52:54.831Z,101209.94
2023-01-29T04:55:26.726Z,101213.41
2023-01-29T04:58:14.765Z,101222.84
2023-01-29T05:00:43.443Z,101227.03
2023-01-29T05:03:12.413Z,101219.38
2023-01-29T05:05:41.621Z,101210.69
2023-01-29T05:08:09.529Z,101202.00
2023-01-29T05:10:36.978Z,101197.53
2023-01-29T05:13:05.825Z,101201.09
2023-01-29T05:15:38.585Z,101197.47
2023-01-29T05:18:08.783Z,101184.59
2023-01-29T05:20:38.098Z,101168.13
2023-01-29T05:23:05.029Z,101160.22
2023-01-29T05:25:33.071Z,101160.38
2023-01-29T05:28:06.336Z,101170.72
2023-01-29T05:30:33.816Z,101172.78
2023-01-29T05:33:00.655Z,101174.22
2023-01-29T05:35:28.503Z,101154.09
2023-01-29T05:37:58.213Z,101163.09
2023-01-29T05:40:25.256Z,101176.19
2023-01-29T05:42:52.078Z,101165.56
2023-01-29T05:45:18.815Z,101163.94
2023-01-29T05:47:46.277Z,101160.56
2023-01-29T05:50:14.117Z,101168.25
2023-01-29T05:52:40.982Z,101163.81
2023-01-29T05:55:09.383Z,101167.47
2023-01-29T05:57:36.163Z,101175.22
2023-01-29T06:00:04.432Z,101182.13
2023-01-29T06:02:39.437Z,101174.31
2023-01-29T06:05:06.487Z,101178.75
2023-01-29T06:07:33.177Z,101181.41
2023-01-29T06:09:59.815Z,101188.31
2023-01-29T06:12:27.453Z,101181.22
2023-01-29T06:14:54.079Z,101182.31
2023-01-29T06:17:20.743Z,101183.09
2023-01-29T06:19:47.465Z,101176.25
2023-01-29T06:22:14.065Z,101171.13
2023-01-29T06:24:40.743Z,101179.69
2023-01-29T06:27:07.521Z,101177.00
2023-01-29T06:29:34.271Z,101184.03
2023-01-29T06:32:01.155Z,101179.63
2023-01-29T06:34:27.804Z,101183.25
2023-01-29T06:36:54.470Z,101178.03
2023-01-29T06:39:21.178Z,101175.34
2023-01-29T06:41:47.881Z,101185.84
2023-01-29T06:44:14.726Z,101192.69
2023-01-29T06:46:41.334Z,101190.19
2023-01-29T06:49:08.052Z,101194.56
2023-01-29T06:51:34.861Z,101193.63
2023-01-29T06:54:01.580Z,101200.59
2023-01-29T06:56:28.255Z,101198.03
2023-01-29T06:58:54.949Z,101204.91
2023-01-29T07:01:35.188Z,101202.28
2023-01-29T07:04:02.966Z,101203.22
2023-01-29T07:06:30.283Z,101202.50
2023-01-29T07:08:57.048Z,101202.38
2023-01-29T07:11:23.928Z,101195.56
2023-01-29T07:13:50.596Z,101191.84
2023-01-29T07:16:19.051Z,101192.97
2023-01-29T07:18:45.868Z,101186.97
2023-01-29T07:21:12.530Z,101180.00
2023-01-29T07:23:39.155Z,101184.31
2023-01-29T07:26:06.333Z,101187.84
2023-01-29T07:28:36.870Z,101193.13
2023-01-29T07:31:04.486Z,101206.69
2023-01-29T07:33:31.720Z,101208.47
2023-01-29T07:35:58.394Z,101214.53
2023-01-29T07:38:25.438Z,101220.63
2023-01-29T07:40:53.063Z,101223.88
2023-01-29T07:43:19.839Z,101212.59
2023-01-29T07:45:46.530Z,101218.81
2023-01-29T07:48:13.630Z,101225.78
2023-01-29T07:50:40.890Z,101225.94
2023-01-29T07:53:07.717Z,101227.59
2023-01-29T07:55:34.436Z,101231.06
2023-01-29T07:58:02.997Z,101234.50
2023-01-29T08:00:31.463Z,101230.09
2023-01-29T08:03:05.947Z,101222.34
2023-01-29T08:05:32.818Z,101232.75
2023-01-29T08:08:06.503Z,101227.50
2023-01-29T08:10:35.125Z,101235.25
2023-01-29T08:13:02.683Z,101225.75
2023-01-29T08:15:29.814Z,101232.81
2023-01-29T08:20:43.593Z,101224.97
2023-01-29T08:23:15.137Z,101225.84
2023-01-29T08:25:41.962Z,101231.88
2023-01-29T08:28:08.954Z,101231.03
2023-01-29T08:30:36.057Z,101237.88
2023-01-29T08:33:03.928Z,101239.59
2023-01-29T08:35:30.881Z,101235.16
2023-01-29T08:38:03.140Z,101245.59
2023-01-29T08:40:32.116Z,101241.97
2023-01-29T08:43:03.525Z,101236.56
2023-01-29T08:45:34.059Z,101236.66
2023-01-29T08:48:00.995Z,101237.38
2023-01-29T08:50:27.783Z,101230.28
2023-01-29T08:52:59.065Z,101247.84
2023-01-29T08:55:26.311Z,101237.94
2023-01-29T08:57:53.001Z,101239.59
2023-01-29T09:00:20.047Z,101247.34
2023-01-29T09:02:46.762Z,101258.66
2023-01-29T09:05:13.467Z,101271.50
2023-01-29T09:07:40.179Z,101274.31
2023-01-29T09:10:07.086Z,101274.03
2023-01-29T09:12:33.777Z,101255.00
2023-01-29T09:15:00.437Z,101251.44
2023-01-29T09:17:27.115Z,101242.69
2023-01-29T09:19:53.734Z,101219.13
2023-01-29T09:22:20.910Z,101198.09
2023-01-29T09:24:47.583Z,101186.63
2023-01-29T09:27:14.296Z,101192.44
2023-01-29T09:29:41.062Z,101196.75
2023-01-29T09:32:07.724Z,101194.84
2023-01-29T09:34:34.872Z,101185.94
2023-01-29T09:37:01.519Z,101177.19
2023-01-29T09:39:28.295Z,101177.97
2023-01-29T09:42:13.818Z,101175.97
2023-01-29T09:44:54.129Z,101187.84
2023-01-29T09:47:24.362Z,101191.09
2023-01-29T09:50:05.680Z,101187.66
2023-01-29T09:52:35.894Z,101186.91
2023-01-29T09:55:02.532Z,101186.00
2023-01-29T09:57:42.616Z,101186.00
2023-01-29T10:00:16.245Z,101191.13
2023-01-29T10:03:10.485Z,101192.63
2023-01-29T10:05:52.592Z,101202.97
2023-01-29T10:08:45.512Z,101203.72
2023-01-29T10:11:21.018Z,101194.78
2023-01-29T10:14:08.091Z,101189.56
2023-01-29T10:16:50.042Z,101193.00
2023-01-29T10:19:39.551Z,101199.91
2023-01-29T10:22:31.122Z,101202.34
2023-01-29T10:25:00.844Z,101197.06
2023-01-29T10:27:34.571Z,101201.50
2023-01-29T10:30:03.614Z,101211.13
2023-01-29T10:32:31.232Z,101214.66
2023-01-29T10:35:02.961Z,101216.69
2023-01-29T10:37:41.116Z,101211.75
2023-01-29T10:40:29.498Z,101214.75
2023-01-29T10:43:06.358Z,101203.28
2023-01-29T10:45:48.247Z,101203.25
2023-01-29T10:48:27.707Z,101208.47
2023-01-29T10:51:25.274Z,101188.41
2023-01-29T10:54:10.283Z,101185.63
2023-01-29T10:56:55.250Z,101189.81
2023-01-29T10:59:39.638Z,101184.47
2023-01-29T11:02:18.235Z,101177.06
2023-01-29T11:04:45.576Z,101164.56
2023-01-29T11:07:13.027Z,101158.34
2023-01-29T11:09:51.540Z,101151.34
2023-01-29T11:12:22.791Z,101142.53
2023-01-29T11:15:11.685Z,101136.34
2023-01-29T11:17:38.417Z,101133.63
2023-01-29T11:20:06.893Z,101142.09
2023-01-29T11:22:35.140Z,101142.28
2023-01-29T11:25:10.013Z,101138.88
2023-01-29T11:27:44.199Z,101139.53
2023-01-29T11:30:24.163Z,101128.34
2023-01-29T11:32:56.935Z,101133.53
2023-01-29T11:35:25.490Z,101126.97
2023-01-29T11:37:52.184Z,101131.16
2023-01-29T11:40:19.078Z,101124.97
2023-01-29T11:42:47.077Z,101112.56
2023-01-29T11:45:22.729Z,101108.97
2023-01-29T11:47:54.150Z,101107.19
2023-01-29T11:50:24.605Z,101106.19
2023-01-29T11:52:51.734Z,101106.31
2023-01-29T11:55:22.074Z,101100.13
2023-01-29T11:57:51.611Z,101094.69
2023-01-29T12:00:27.075Z,101088.59
2023-01-29T12:02:53.635Z,101090.97
2023-01-29T12:05:23.727Z,101074.19
2023-01-29T12:08:01.578Z,101061.78
2023-01-29T12:10:42.355Z,101051.28
2023-01-29T12:13:19.959Z,101049.44
2023-01-29T12:15:48.178Z,101037.06
2023-01-29T12:18:38.406Z,101029.38
2023-01-29T12:21:16.002Z,101021.34
2023-01-29T12:24:06.783Z,101016.22
2023-01-29T12:26:36.847Z,101023.13
2023-01-29T12:29:31.866Z,101012.69
2023-01-29T12:32:05.885Z,101016.91
2023-01-29T12:34:46.327Z,101015.94
2023-01-29T12:37:21.850Z,101006.44
2023-01-29T12:39:49.837Z,101008.91
2023-01-29T12:42:18.095Z,101002.63
2023-01-29T12:44:47.711Z,100998.13
2023-01-29T12:47:57.709Z,101000.75
2023-01-29T12:50:29.022Z,100994.44
2023-01-29T12:53:20.871Z,100986.59
2023-01-29T12:55:55.300Z,100980.69
2023-01-29T12:58:44.488Z,100987.09
2023-01-29T13:01:15.615Z,100987.00
2023-01-29T13:04:06.341Z,100987.44
2023-01-29T13:06:42.790Z,100988.41
2023-01-29T13:09:17.315Z,100981.63
2023-01-29T13:11:52.350Z,100985.31
2023-01-29T13:14:38.850Z,100990.41
2023-01-29T13:17:18.529Z,100991.09
2023-01-29T13:19:48.024Z,100991.78
2023-01-29T13:22:22.762Z,100981.19
2023-01-29T13:24:58.814Z,100988.66
2023-01-29T13:27:32.181Z,100978.00
2023-01-29T13:29:59.701Z,100970.00
2023-01-29T13:32:28.572Z,100977.72
2023-01-29T13:35:19.807Z,100977.72
2023-01-29T13:37:49.292Z,100968.94
2023-01-29T13:40:23.114Z,100970.81
2023-01-29T13:42:50.393Z,100961.03
2023-01-29T13:45:26.144Z,100966.16
2023-01-29T13:47:53.278Z,100958.25
2023-01-29T13:50:33.509Z,100958.19
2023-01-29T13:53:02.289Z,100948.53
2023-01-29T13:55:34.935Z,100939.81
2023-01-29T13:58:02.930Z,100932.81
2023-01-29T14:00:35.499Z,100928.63
2023-01-29T14:03:05.100Z,100933.91
2023-01-29T14:05:31.821Z,100928.66
2023-01-29T14:08:14.980Z,100928.78
2023-01-29T14:10:42.729Z,100931.41
2023-01-29T14:13:15.621Z,100936.81
2023-01-29T14:15:42.410Z,100933.31
2023-01-29T14:18:09.037Z,100932.41
2023-01-29T14:20:51.821Z,100939.69
2023-01-29T14:23:27.454Z,100927.69
2023-01-29T14:25:54.166Z,100936.38
2023-01-29T14:28:24.000Z,100937.22
2023-01-29T14:30:51.250Z,100929.38
2023-01-29T14:33:39.434Z,100931.31
2023-01-29T14:36:13.467Z,100926.13
2023-01-29T14:38:52.520Z,100936.66
2023-01-29T14:41:31.882Z,100930.69
2023-01-29T14:44:35.836Z,100935.97
2023-01-29T14:47:04.748Z,100937.59
2023-01-29T14:49:49.373Z,100941.16
2023-01-29T14:52:17.362Z,100944.63
2023-01-29T14:54:46.395Z,100942.97
2023-01-29T14:57:15.309Z,100938.66
2023-01-29T14:59:54.360Z,100935.34
2023-01-29T15:02:42.114Z,100929.44
2023-01-29T15:05:21.827Z,100933.06
2023-01-29T15:08:02.317Z,100935.63
2023-01-29T15:10:43.074Z,100935.69
2023-01-29T15:13:24.887Z,100933.44
2023-01-29T15:15:57.975Z,100931.75
2023-01-29T15:18:27.665Z,100929.47
2023-01-29T15:21:05.939Z,100925.13
2023-01-29T15:23:34.179Z,100922.38
2023-01-29T15:26:06.558Z,100913.69
2023-01-29T15:28:34.641Z,100910.00
2023-01-29T15:31:07.893Z,100916.34
2023-01-29T15:33:34.944Z,100915.91
2023-01-29T15:36:09.540Z,100911.31
2023-01-29T15:38:36.368Z,100911.41
2023-01-29T15:41:16.665Z,100920.06
2023-01-29T15:43:45.801Z,100917.53
2023-01-29T15:46:20.863Z,100913.28
2023-01-29T15:48:49.243Z,100914.34
2023-01-29T15:51:17.950Z,100921.50
2023-01-29T15:53:49.178Z,100926.78
2023-01-29T15:56:18.814Z,100925.91
2023-01-29T15:58:48.458Z,100934.69
2023-01-29T16:01:15.670Z,100938.34
2023-01-29T16:03:42.806Z,100936.69
2023-01-29T16:06:09.813Z,100938.41
2023-01-29T16:08:36.707Z,100937.44
2023-01-29T16:11:05.198Z,100938.31
2023-01-29T16:13:34.295Z,100934.97
2023-01-29T16:16:03.505Z,100928.03
2023-01-29T16:18:47.718Z,100931.75
2023-01-29T16:21:33.275Z,100927.47
2023-01-29T16:24:02.736Z,100917.88
2023-01-29T16:26:34.473Z,100920.63
2023-01-29T16:29:10.451Z,100920.72
2023-01-29T16:31:38.040Z,100915.22
2023-01-29T16:34:24.636Z,100915.22
2023-01-29T16:36:53.427Z,100905.78
2023-01-29T16:39:23.320Z,100906.78
2023-01-29T16:42:20.009Z,100907.22
2023-01-29T16:44:51.528Z,100907.22
2023-01-29T16:47:34.930Z,100892.47
2023-01-29T16:50:24.316Z,100892.44
2023-01-29T16:53:11.532Z,100888.19
2023-01-29T16:55:45.520Z,100894.34
2023-01-29T16:58:32.406Z,100887.56
2023-01-29T17:01:03.238Z,100891.03
2023-01-29T17:03:31.931Z,100887.50
2023-01-29T17:05:59.417Z,100885.94
2023-01-29T17:08:30.869Z,100889.59
2023-01-29T17:10:57.828Z,100888.66
2023-01-29T17:13:30.789Z,100888.78
2023-01-29T17:16:04.852Z,100890.44
2023-01-29T17:18:31.738Z,100889.59
2023-01-29T17:20:58.394Z,100884.41
2023-01-29T17:23:25.093Z,100886.13
2023-01-29T17:25:51.804Z,100884.50
2023-01-29T17:28:18.603Z,100882.75
2023-01-29T17:30:56.569Z,100886.31
2023-01-29T17:33:31.951Z,100887.97
2023-01-29T17:35:58.681Z,100894.09
2023-01-29T17:38:26.714Z,100882.00
2023-01-29T17:40:58.119Z,100891.75
2023-01-29T17:43:24.817Z,100885.72
2023-01-29T17:45:51.765Z,100883.09
2023-01-29T17:48:22.335Z,100878.03
2023-01-29T17:50:53.008Z,100887.63
2023-01-29T17:53:21.187Z,100893.66
2023-01-29T17:55:48.259Z,100885.91
2023-01-29T17:58:23.694Z,100890.56
2023-01-29T18:00:50.953Z,100889.38
2023-01-29T18:03:17.649Z,100882.56
2023-01-29T18:05:45.797Z,100893.94
2023-01-29T18:08:21.104Z,100889.81
2023-01-29T18:10:47.783Z,100892.19
2023-01-29T18:13:14.538Z,100888.66
2023-01-29T18:15:41.211Z,100894.00
2023-01-29T18:18:12.523Z,100897.53
2023-01-29T18:20:40.215Z,100895.91
2023-01-29T18:23:08.060Z,100897.75
2023-01-29T18:25:35.030Z,100894.31
2023-01-29T18:28:02.020Z,100898.69
2023-01-29T18:30:29.033Z,100903.69
2023-01-29T18:32:55.800Z,100908.94
2023-01-29T18:35:22.646Z,100909.84
2023-01-29T18:37:49.650Z,100926.41
2023-01-29T18:40:17.359Z,100929.88
2023-01-29T18:42:44.993Z,100924.13
2023-01-29T18:45:12.437Z,100923.34
2023-01-29T18:47:39.849Z,100928.41
2023-01-29T18:50:07.367Z,100919.09
2023-01-29T18:52:34.398Z,100918.16
2023-01-29T18:55:01.285Z,100920.78
2023-01-29T18:58:26.020Z,100920.78
2023-01-29T19:00:15.381Z,100920.03
2023-01-29T19:02:42.901Z,100917.47
2023-01-29T19:05:09.842Z,100923.72
2023-01-29T19:07:36.577Z,100908.78
2023-01-29T19:10:06.626Z,100902.72
2023-01-29T19:12:34.310Z,100896.66
2023-01-29T19:15:01.060Z,100897.66
2023-01-29T19:17:27.730Z,100900.28
2023-01-29T19:19:56.367Z,100895.00
2023-01-29T19:22:23.066Z,100895.06
2023-01-29T19:24:49.813Z,100896.00
2023-01-29T19:27:16.541Z,100899.38
2023-01-29T19:29:43.138Z,100894.22
2023-01-29T19:32:09.911Z,100887.34
2023-01-29T19:34:36.732Z,100888.94
2023-01-29T19:37:03.701Z,100882.94
2023-01-29T19:39:33.709Z,100883.66
2023-01-29T19:42:01.349Z,100890.72
2023-01-29T19:44:28.002Z,100882.88
2023-01-29T19:46:54.639Z,100879.41
2023-01-29T19:49:21.501Z,100886.41
2023-01-29T19:51:48.181Z,100877.63
2023-01-29T19:54:14.829Z,100880.25
2023-01-29T19:56:41.539Z,100871.69
2023-01-29T19:59:08.225Z,100872.56
2023-01-29T20:01:34.963Z,100870.03
2023-01-29T20:04:03.116Z,100867.34
2023-01-29T20:06:33.009Z,100868.97
2023-01-29T20:09:02.057Z,100866.47
2023-01-29T20:11:29.131Z,100864.72
2023-01-29T20:13:55.849Z,100857.97
2023-01-29T20:16:22.690Z,100851.84
2023-01-29T20:18:49.434Z,100840.63
2023-01-29T20:21:20.477Z,100856.34
2023-01-29T20:23:50.191Z,100852.16
2023-01-29T20:26:17.233Z,100861.56
2023-01-29T20:28:46.642Z,100866.09
2023-01-29T20:31:14.069Z,100858.22
2023-01-29T20:33:40.678Z,100860.53
2023-01-29T20:36:09.921Z,100858.84
2023-01-29T20:38:36.684Z,100850.13
2023-01-29T20:41:13.245Z,100841.53
2023-01-29T20:43:40.389Z,100846.00
2023-01-29T20:46:07.403Z,100853.63
2023-01-29T20:48:34.135Z,100846.78
2023-01-29T20:51:06.302Z,100850.44
2023-01-29T20:53:32.937Z,100849.41
2023-01-29T20:55:59.610Z,100846.06
2023-01-29T20:58:26.529Z,100841.63
2023-01-29T21:00:53.229Z,100830.28
2023-01-29T21:03:19.889Z,100838.91
2023-01-29T21:05:46.633Z,100833.09
2023-01-29T21:08:13.272Z,100835.63
2023-01-29T21:10:41.464Z,100833.81
2023-01-29T21:13:09.205Z,100827.06
2023-01-29T21:15:35.868Z,100819.22
2023-01-29T21:18:04.400Z,100821.91
2023-01-29T21:20:31.690Z,100823.50
2023-01-29T21:22:58.385Z,100824.41
2023-01-29T21:25:25.074Z,100830.56
2023-01-29T21:27:51.715Z,100830.59
2023-01-29T21:30:18.801Z,100819.94
2023-01-29T21:32:46.081Z,100818.97
2023-01-29T21:35:13.042Z,100827.00
2023-01-29T21:37:39.666Z,100825.06
2023-01-29T21:40:07.170Z,100833.47
2023-01-29T21:42:52.447Z,100832.06
2023-01-29T21:45:19.479Z,100846.84
2023-01-29T21:47:46.408Z,100837.50
2023-01-29T21:50:13.823Z,100839.16
2023-01-29T21:52:40.561Z,100835.72
2023-01-29T21:55:07.611Z,100837.25
2023-01-29T21:57:34.306Z,100825.13
2023-01-29T22:00:01.038Z,100824.28
2023-01-29T22:02:30.793Z,100824.28
2023-01-29T22:05:12.438Z,100820.03
2023-01-29T22:07:44.720Z,100802.50
2023-01-29T22:10:12.381Z,100796.56
2023-01-29T22:12:39.804Z,100788.81
2023-01-29T22:15:07.447Z,100778.50
2023-01-29T22:17:35.148Z,100774.94
2023-01-29T22:20:02.219Z,100774.00
2023-01-29T22:22:28.944Z,100774.69
2023-01-29T22:24:57.612Z,100753.91
2023-01-29T22:27:24.595Z,100751.06
2023-01-29T22:29:51.446Z,100739.59
2023-01-29T22:32:18.335Z,100745.53
2023-01-29T22:34:45.018Z,100723.00
2023-01-29T22:37:11.600Z,100720.16
2023-01-29T22:39:38.238Z,100711.53
2023-01-29T22:42:04.992Z,100720.94
2023-01-29T22:44:31.610Z,100729.16
2023-01-29T22:46:58.355Z,100738.69
2023-01-29T22:49:25.680Z,100734.47
2023-01-29T22:52:09.876Z,100734.63
2023-01-29T22:54:41.812Z,100740.94
2023-01-29T22:57:11.369Z,100730.56
2023-01-29T22:59:38.506Z,100714.75
2023-01-29T23:02:05.946Z,100718.94
2023-01-29T23:04:32.791Z,100721.69
2023-01-29T23:06:59.438Z,100724.19
2023-01-29T23:09:26.219Z,100719.03
2023-01-29T23:11:52.864Z,100723.44
2023-01-29T23:14:19.576Z,100717.91
2023-01-29T23:16:46.241Z,100719.59
2023-01-29T23:19:12.961Z,100716.19
2023-01-29T23:21:39.789Z,100709.38
2023-01-29T23:24:07.983Z,100704.16
2023-01-29T23:26:53.478Z,100691.03
2023-01-29T23:29:20.461Z,100685.94
2023-01-29T23:31:47.242Z,100684.16
2023-01-29T23:34:14.396Z,100691.88
2023-01-29T23:36:41.331Z,100685.75
2023-01-29T23:39:08.139Z,100685.75
2023-01-29T23:41:35.085Z,100683.97
2023-01-29T23:44:01.837Z,100671.09
2023-01-29T23:46:28.584Z,100677.28
2023-01-29T23:48:55.347Z,100676.22
2023-01-29T23:51:22.249Z,100682.16
2023-01-29T23:53:48.899Z,100669.09
2023-01-29T23:56:15.913Z,100669.81
2023-01-29T23:58:42.637Z,100664.72
